Time;durP1;ratioP1;P1;durP2;ratioP2;P2;SDS_P1;SDS_P2;PMS_P1;PMS_P2;Temp;Humidity;BMP_temperature;BMP_pressure;BME280_temperature;BME280_humidity;BME280_pressure;Samples;Min_cycle;Max_cycle;Signal;HPM_P1;HPM_P2
2024/03/24 00:01:10;;;;;;;7.43;2.70;;;5.70;99.90;;;;;;5039945;28;20056;-75
2024/03/24 00:03:36;;;;;;;2.92;2.13;;;5.80;99.90;;;;;;5037366;28;20322;-75
2024/03/24 00:06:03;;;;;;;4.07;2.63;;;5.70;99.90;;;;;;5040888;28;20474;-74
2024/03/24 00:08:29;;;;;;;4.15;2.58;;;5.50;99.90;;;;;;5041216;28;20020;-76
2024/03/24 00:10:57;;;;;;;5.38;2.58;;;5.50;99.90;;;;;;5040262;28;20487;-73
2024/03/24 00:13:23;;;;;;;5.40;2.70;;;5.60;99.90;;;;;;5039022;28;20029;-73
2024/03/24 00:15:49;;;;;;;5.13;2.65;;;5.60;99.90;;;;;;5040248;28;20134;-73
2024/03/24 00:18:15;;;;;;;7.18;2.65;;;5.60;99.90;;;;;;5039861;28;20033;-72
2024/03/24 00:20:41;;;;;;;4.80;2.70;;;5.60;99.90;;;;;;5039203;28;20511;-73
2024/03/24 00:23:10;;;;;;;9.38;3.70;;;5.70;99.90;;;;;;5041009;28;20684;-73
2024/03/24 00:25:36;;;;;;;4.40;3.08;;;5.60;99.90;;;;;;5039861;28;20037;-73
2024/03/24 00:28:01;;;;;;;4.75;2.95;;;5.60;99.90;;;;;;5037644;28;20752;-73
2024/03/24 00:30:28;;;;;;;7.80;3.65;;;5.50;99.90;;;;;;5020376;28;20039;-73
2024/03/24 00:32:54;;;;;;;6.75;3.65;;;5.50;99.90;;;;;;5040826;28;20033;-73
2024/03/24 00:35:20;;;;;;;9.45;3.78;;;5.40;99.90;;;;;;5040006;28;20773;-73
2024/03/24 00:37:46;;;;;;;8.93;4.25;;;5.40;99.90;;;;;;5039748;28;20064;-73
2024/03/24 00:40:13;;;;;;;9.05;3.33;;;5.40;99.90;;;;;;5040721;28;20104;-73
2024/03/24 00:42:39;;;;;;;11.55;4.90;;;5.40;99.90;;;;;;5040650;28;20048;-73
2024/03/24 00:45:07;;;;;;;12.25;4.90;;;5.40;99.90;;;;;;5021630;28;20127;-73
2024/03/24 00:47:34;;;;;;;12.82;4.43;;;5.50;99.90;;;;;;5040814;28;20087;-72
2024/03/24 00:49:59;;;;;;;5.80;2.83;;;5.40;99.90;;;;;;5040887;28;20460;-77
2024/03/24 00:52:25;;;;;;;11.27;3.80;;;5.30;99.90;;;;;;5038263;28;20032;-76
2024/03/24 00:54:51;;;;;;;5.97;2.95;;;5.10;99.90;;;;;;5039056;28;20116;-76
2024/03/24 00:57:16;;;;;;;5.82;3.72;;;4.90;99.90;;;;;;5039525;28;20029;-76
2024/03/24 00:59:42;;;;;;;6.65;3.60;;;4.80;99.90;;;;;;5040063;28;20033;-73
2024/03/24 01:02:08;;;;;;;10.25;4.97;;;4.80;99.90;;;;;;5037872;28;20040;-72
2024/03/24 01:04:34;;;;;;;10.48;4.63;;;4.80;99.90;;;;;;5038751;28;20128;-72
2024/03/24 01:06:59;;;;;;;8.40;3.75;;;4.80;99.90;;;;;;5038739;28;20063;-73
2024/03/24 01:09:25;;;;;;;6.10;3.35;;;4.90;99.90;;;;;;5038812;28;20040;-72
2024/03/24 01:11:51;;;;;;;6.43;3.55;;;4.80;99.90;;;;;;5039129;28;20108;-73
2024/03/24 01:14:16;;;;;;;5.18;3.40;;;4.80;99.90;;;;;;5039643;28;20106;-77
2024/03/24 01:16:42;;;;;;;5.35;2.97;;;4.70;99.90;;;;;;5021257;28;20044;-75
2024/03/24 01:19:08;;;;;;;8.88;3.72;;;4.80;99.90;;;;;;5042186;28;20765;-76
2024/03/24 01:21:34;;;;;;;5.20;2.92;;;4.70;99.90;;;;;;5042867;28;20651;-75
2024/03/24 01:24:00;;;;;;;11.63;4.15;;;4.60;99.90;;;;;;5043118;28;20804;-76
2024/03/24 01:26:25;;;;;;;6.50;3.33;;;4.60;99.90;;;;;;5024455;28;20569;-76
2024/03/24 01:28:51;;;;;;;4.75;3.00;;;4.60;99.90;;;;;;5043117;28;20035;-76
2024/03/24 01:31:17;;;;;;;7.50;3.47;;;4.60;99.90;;;;;;5043367;28;20110;-76
2024/03/24 01:33:43;;;;;;;5.10;3.35;;;4.70;99.90;;;;;;5042908;28;20025;-76
2024/03/24 01:36:08;;;;;;;3.83;2.53;;;4.70;99.90;;;;;;5024955;28;20056;-77
2024/03/24 01:38:34;;;;;;;6.90;2.75;;;4.70;99.90;;;;;;5042859;28;20624;-76
2024/03/24 01:41:00;;;;;;;5.50;2.67;;;4.80;99.90;;;;;;5042756;28;20056;-76
2024/03/24 01:43:26;;;;;;;4.93;2.53;;;4.70;99.90;;;;;;5042251;28;20055;-78
2024/03/24 01:45:52;;;;;;;5.60;2.40;;;4.70;99.90;;;;;;5042164;28;20113;-78
2024/03/24 01:48:18;;;;;;;6.57;2.70;;;4.70;99.90;;;;;;5023900;28;20029;-76
2024/03/24 01:50:44;;;;;;;5.05;2.97;;;4.60;99.90;;;;;;5042884;28;20053;-76
2024/03/24 01:53:11;;;;;;;4.95;2.53;;;4.40;99.90;;;;;;5040030;28;20022;-77
2024/03/24 01:55:37;;;;;;;3.92;2.70;;;4.20;99.90;;;;;;5039702;28;20039;-76
2024/03/24 01:58:03;;;;;;;4.85;3.25;;;4.20;99.90;;;;;;5024581;28;20534;-75
2024/03/24 02:00:30;;;;;;;3.45;2.65;;;4.20;99.90;;;;;;5042623;28;20489;-74
2024/03/24 02:02:56;;;;;;;5.20;2.88;;;4.30;99.90;;;;;;5022957;28;20455;-75
2024/03/24 02:05:25;;;;;;;3.17;2.50;;;4.40;99.90;;;;;;5042664;28;20033;-77
2024/03/24 02:07:52;;;;;;;4.28;2.63;;;4.50;99.90;;;;;;5040682;28;20039;-72
2024/03/24 02:10:18;;;;;;;5.53;3.28;;;4.50;99.90;;;;;;5041925;28;20051;-72
2024/03/24 02:12:45;;;;;;;8.50;2.83;;;4.60;99.90;;;;;;5042910;28;20029;-72
2024/03/24 02:15:13;;;;;;;5.72;2.60;;;4.50;99.90;;;;;;5041651;28;20067;-72
2024/03/24 02:17:40;;;;;;;6.60;2.45;;;4.40;99.90;;;;;;5042486;28;20028;-72
2024/03/24 02:20:06;;;;;;;4.50;2.70;;;4.50;99.90;;;;;;5042600;28;20041;-72
2024/03/24 02:22:39;;;;;;;4.68;2.58;;;4.60;99.90;;;;;;5042713;28;20024;-72
2024/03/24 02:25:05;;;;;;;6.15;2.83;;;4.60;99.90;;;;;;5040895;28;20087;-72
2024/03/24 02:27:32;;;;;;;3.90;2.40;;;4.60;99.90;;;;;;5042640;28;20056;-72
2024/03/24 02:29:58;;;;;;;6.32;2.80;;;4.70;99.90;;;;;;5042654;28;20039;-72
2024/03/24 02:32:25;;;;;;;6.68;2.55;;;4.70;99.90;;;;;;5042809;28;20064;-72
2024/03/24 02:34:52;;;;;;;6.10;2.72;;;4.70;99.90;;;;;;5041780;28;20102;-72
2024/03/24 02:37:18;;;;;;;3.63;2.60;;;4.70;99.90;;;;;;5042382;28;20043;-72
2024/03/24 02:39:44;;;;;;;3.75;2.38;;;4.60;99.90;;;;;;5043195;28;20033;-72
2024/03/24 02:42:10;;;;;;;8.70;2.78;;;4.60;99.90;;;;;;5042843;28;20037;-72
2024/03/24 02:44:36;;;;;;;4.75;2.97;;;4.60;99.90;;;;;;5041954;28;20578;-72
2024/03/24 02:47:02;;;;;;;6.43;2.85;;;4.50;99.90;;;;;;5042146;28;20033;-71
2024/03/24 02:49:28;;;;;;;6.18;2.92;;;4.40;99.90;;;;;;5024674;28;20039;-72
2024/03/24 02:51:54;;;;;;;6.55;2.90;;;4.30;99.90;;;;;;5042633;28;20037;-72
2024/03/24 02:54:20;;;;;;;4.63;2.85;;;4.20;99.90;;;;;;5042366;28;20110;-72
2024/03/24 02:56:45;;;;;;;4.75;2.60;;;4.20;99.90;;;;;;5041517;28;20028;-72
2024/03/24 02:59:11;;;;;;;6.07;2.72;;;4.30;99.90;;;;;;5042551;28;20056;-72
2024/03/24 03:01:37;;;;;;;5.03;2.63;;;4.30;99.90;;;;;;5040542;28;20035;-72
2024/03/24 03:04:03;;;;;;;7.40;2.60;;;4.40;99.90;;;;;;5041717;28;20519;-72
2024/03/24 03:06:30;;;;;;;7.00;3.22;;;4.50;99.90;;;;;;5042046;28;20096;-72
2024/03/24 03:08:56;;;;;;;6.60;3.33;;;4.50;99.90;;;;;;5041129;28;20506;-72
2024/03/24 03:11:21;;;;;;;4.38;3.15;;;4.40;99.90;;;;;;5041003;28;20098;-72
2024/03/24 03:13:47;;;;;;;4.75;2.95;;;4.40;99.90;;;;;;5042268;28;20471;-72
2024/03/24 03:16:13;;;;;;;5.00;3.13;;;4.40;99.90;;;;;;5041860;28;20033;-72
2024/03/24 03:18:39;;;;;;;5.50;3.10;;;4.40;99.90;;;;;;5040885;28;20086;-73
2024/03/24 03:21:05;;;;;;;6.90;2.75;;;4.40;99.90;;;;;;5042323;28;20037;-74
2024/03/24 03:23:30;;;;;;;3.60;2.70;;;4.40;99.90;;;;;;5041983;28;20484;-74
2024/03/24 03:25:56;;;;;;;4.43;3.00;;;4.40;99.90;;;;;;5023489;28;20045;-75
2024/03/24 03:28:22;;;;;;;5.00;2.90;;;4.40;99.90;;;;;;5042085;28;20036;-75
2024/03/24 03:30:48;;;;;;;8.63;3.92;;;4.30;99.90;;;;;;5040802;28;20044;-76
2024/03/24 03:33:14;;;;;;;6.95;3.05;;;4.30;99.90;;;;;;5041909;28;20031;-75
2024/03/24 03:35:40;;;;;;;6.22;3.08;;;4.30;99.90;;;;;;5041110;28;20056;-75
2024/03/24 03:38:05;;;;;;;7.95;3.83;;;4.20;99.90;;;;;;5040614;28;20132;-74
2024/03/24 03:40:31;;;;;;;7.28;3.50;;;4.20;99.90;;;;;;5040725;28;20033;-76
2024/03/24 03:42:57;;;;;;;4.57;3.00;;;4.10;99.90;;;;;;5041298;28;20044;-76
2024/03/24 03:45:25;;;;;;;8.45;3.40;;;3.90;99.90;;;;;;5041575;28;20060;-78
2024/03/24 03:47:51;;;;;;;5.75;3.35;;;3.80;99.90;;;;;;5041076;28;20033;-77
2024/03/24 03:50:20;;;;;;;9.55;3.15;;;3.90;99.90;;;;;;5041478;28;20025;-75
2024/03/24 03:52:49;;;;;;;4.95;3.38;;;4.00;99.90;;;;;;5039737;28;20502;-76
2024/03/24 03:55:17;;;;;;;6.55;3.53;;;3.90;99.90;;;;;;5041099;28;20496;-76
2024/03/24 03:57:44;;;;;;;5.82;4.13;;;3.90;99.90;;;;;;5040478;28;20492;-75
2024/03/24 04:00:10;;;;;;;6.18;3.47;;;4.00;99.90;;;;;;5041173;28;20087;-75
2024/03/24 04:02:40;;;;;;;5.57;3.15;;;4.10;99.90;;;;;;5023095;28;20560;-74
2024/03/24 04:05:09;;;;;;;8.10;3.60;;;4.10;99.90;;;;;;5040520;28;20115;-74
2024/03/24 04:07:36;;;;;;;4.78;3.10;;;4.20;99.90;;;;;;5041506;28;20129;-74
2024/03/24 04:10:04;;;;;;;8.00;3.75;;;4.20;99.90;;;;;;5040885;28;20486;-73
2024/03/24 04:12:30;;;;;;;7.75;3.80;;;4.10;99.90;;;;;;5041414;28;20029;-74
2024/03/24 04:14:58;;;;;;;9.85;4.40;;;4.00;99.90;;;;;;5040577;28;20040;-73
2024/03/24 04:17:24;;;;;;;7.25;3.90;;;4.00;99.90;;;;;;5039578;28;20057;-75
2024/03/24 04:19:50;;;;;;;7.75;4.07;;;4.00;99.90;;;;;;5039223;28;20116;-73
2024/03/24 04:22:17;;;;;;;10.60;4.43;;;4.00;99.90;;;;;;5040681;28;20025;-74
2024/03/24 04:24:45;;;;;;;7.03;3.63;;;4.10;99.90;;;;;;5040506;28;20065;-74
2024/03/24 04:27:11;;;;;;;7.82;3.83;;;4.20;99.90;;;;;;5039613;28;20029;-72
2024/03/24 04:29:37;;;;;;;5.60;3.70;;;4.00;99.90;;;;;;5040370;28;20032;-72
2024/03/24 04:32:03;;;;;;;9.68;4.20;;;3.80;99.90;;;;;;5039818;28;20067;-72
2024/03/24 04:34:29;;;;;;;6.40;3.70;;;3.60;99.90;;;;;;5038876;28;20122;-72
2024/03/24 04:36:54;;;;;;;12.15;4.18;;;3.60;99.90;;;;;;5038729;28;20052;-72
2024/03/24 04:39:21;;;;;;;8.85;3.70;;;3.70;99.90;;;;;;5040572;28;20491;-72
2024/03/24 04:41:48;;;;;;;8.43;3.83;;;3.60;99.90;;;;;;5022596;28;20032;-71
2024/03/24 04:44:14;;;;;;;9.60;5.18;;;3.60;99.90;;;;;;5040902;28;20098;-72
2024/03/24 04:46:40;;;;;;;7.10;4.20;;;3.50;99.90;;;;;;5040615;28;20072;-71
2024/03/24 04:49:08;;;;;;;6.35;3.67;;;3.40;99.90;;;;;;5024495;28;20686;-71
2024/03/24 04:51:34;;;;;;;7.45;4.10;;;3.40;99.90;;;;;;5021327;28;20064;-72
2024/03/24 04:54:01;;;;;;;8.00;3.85;;;3.40;99.90;;;;;;5026955;28;20041;-72
2024/03/24 04:56:31;;;;;;;7.30;4.18;;;3.40;99.90;;;;;;5044098;28;20033;-72
2024/03/24 04:58:57;;;;;;;8.20;4.47;;;3.30;99.90;;;;;;5044339;28;20032;-71
2024/03/24 05:01:23;;;;;;;6.05;3.28;;;3.30;99.90;;;;;;5044399;28;20101;-71
2024/03/24 05:03:48;;;;;;;7.20;4.00;;;3.30;99.90;;;;;;5044096;28;20208;-71
2024/03/24 05:06:16;;;;;;;8.55;3.90;;;3.30;99.90;;;;;;5044021;28;20036;-71
2024/03/24 05:08:42;;;;;;;6.97;3.47;;;3.40;99.90;;;;;;5042486;28;20139;-71
2024/03/24 05:11:11;;;;;;;6.65;4.65;;;3.40;99.90;;;;;;5044030;28;20020;-72
2024/03/24 05:13:40;;;;;;;8.48;3.80;;;3.40;99.90;;;;;;5043826;28;20028;-71
2024/03/24 05:16:10;;;;;;;6.85;3.85;;;3.40;99.90;;;;;;5041077;28;20040;-71
2024/03/24 05:18:36;;;;;;;8.13;4.38;;;3.40;99.90;;;;;;5044439;28;20055;-71
2024/03/24 05:21:04;;;;;;;5.82;3.70;;;3.40;99.90;;;;;;5043882;28;20348;-71
2024/03/24 05:23:30;;;;;;;8.07;3.90;;;3.40;99.90;;;;;;5042889;28;20337;-71
2024/03/24 05:25:56;;;;;;;6.78;3.67;;;3.40;99.90;;;;;;5025213;28;20087;-72
2024/03/24 05:28:22;;;;;;;5.88;3.65;;;3.40;99.90;;;;;;5044196;28;20029;-71
2024/03/24 05:30:51;;;;;;;7.32;4.05;;;3.40;99.90;;;;;;5043985;28;20522;-71
2024/03/24 05:33:17;;;;;;;7.80;3.95;;;3.40;99.90;;;;;;5043183;28;20035;-72
2024/03/24 05:35:44;;;;;;;8.60;4.18;;;3.40;99.90;;;;;;5042115;28;20817;-72
2024/03/24 05:38:10;;;;;;;6.57;3.60;;;3.50;99.90;;;;;;5042665;28;20559;-72
2024/03/24 05:40:36;;;;;;;6.32;3.17;;;3.60;99.90;;;;;;5042882;28;20054;-72
2024/03/24 05:43:02;;;;;;;6.78;3.42;;;3.60;99.90;;;;;;5043745;28;20129;-71
2024/03/24 05:45:28;;;;;;;7.88;3.53;;;3.70;99.90;;;;;;5043242;28;20143;-72
2024/03/24 05:47:54;;;;;;;4.78;3.08;;;3.80;99.90;;;;;;5043898;28;20041;-72
2024/03/24 05:50:20;;;;;;;6.57;3.05;;;4.00;99.90;;;;;;5043620;28;20033;-72
2024/03/24 05:52:46;;;;;;;5.50;3.88;;;4.10;99.90;;;;;;5025391;28;20116;-72
2024/03/24 05:55:15;;;;;;;6.47;3.30;;;4.10;99.90;;;;;;5024977;28;20041;-71
2024/03/24 05:57:41;;;;;;;7.32;3.30;;;4.20;99.90;;;;;;5023981;28;20033;-72
2024/03/24 06:00:09;;;;;;;5.40;3.10;;;4.20;99.90;;;;;;5043239;28;20033;-71
2024/03/24 06:02:39;;;;;;;8.80;3.65;;;4.10;99.90;;;;;;5025780;28;20718;-71
2024/03/24 06:05:09;;;;;;;4.47;3.08;;;4.20;99.90;;;;;;5042546;28;20048;-71
2024/03/24 06:07:35;;;;;;;4.43;3.05;;;4.20;99.90;;;;;;5043314;28;20033;-73
2024/03/24 06:10:01;;;;;;;5.05;2.92;;;4.30;99.90;;;;;;5043249;28;20065;-72
2024/03/24 06:12:29;;;;;;;9.57;3.28;;;4.20;99.90;;;;;;5043729;28;20029;-71
2024/03/24 06:14:54;;;;;;;6.78;3.83;;;4.10;99.90;;;;;;5040919;28;20029;-72
2024/03/24 06:17:20;;;;;;;5.38;3.30;;;3.90;99.90;;;;;;5043280;28;20733;-71
2024/03/24 06:19:46;;;;;;;6.85;3.58;;;3.90;99.90;;;;;;5043384;28;20377;-71
2024/03/24 06:22:12;;;;;;;5.50;3.60;;;4.00;99.90;;;;;;5043450;28;20826;-72
2024/03/24 06:24:37;;;;;;;4.78;2.65;;;4.10;99.90;;;;;;5042109;28;20759;-72
2024/03/24 06:27:03;;;;;;;7.30;3.80;;;4.30;99.90;;;;;;5042671;28;20036;-71
2024/03/24 06:29:29;;;;;;;5.07;2.92;;;4.40;99.90;;;;;;5042401;28;20052;-71
2024/03/24 06:31:55;;;;;;;8.50;2.60;;;4.30;99.90;;;;;;5041671;28;20499;-71
2024/03/24 06:34:21;;;;;;;11.73;3.72;;;4.20;99.90;;;;;;5042839;28;20406;-71
2024/03/24 06:36:47;;;;;;;7.60;3.15;;;4.20;99.90;;;;;;5022459;28;20029;-72
2024/03/24 06:39:13;;;;;;;8.55;3.25;;;4.20;99.90;;;;;;5042475;28;20033;-71
2024/03/24 06:41:39;;;;;;;9.20;3.28;;;4.20;99.90;;;;;;5042359;28;20063;-72
2024/03/24 06:44:16;;;;;;;4.47;3.20;;;4.20;99.90;;;;;;5042459;28;20128;-72
2024/03/24 06:46:45;;;;;;;10.10;7.93;;;4.50;99.90;;;;;;5031998;28;20041;-69
2024/03/24 06:49:11;;;;;;;6.97;3.78;;;4.60;99.90;;;;;;5017138;28;20049;-71
2024/03/24 06:51:37;;;;;;;8.32;3.60;;;4.70;99.90;;;;;;5041385;28;20124;-71
2024/03/24 06:54:04;;;;;;;4.75;2.90;;;4.80;99.90;;;;;;5042221;28;20614;-71
2024/03/24 06:56:30;;;;;;;5.25;3.30;;;4.80;99.90;;;;;;5041622;28;20039;-71
2024/03/24 06:58:56;;;;;;;5.00;3.05;;;4.80;99.90;;;;;;5023224;28;20083;-71
2024/03/24 07:01:22;;;;;;;4.90;2.63;;;4.90;99.90;;;;;;5042365;28;20882;-71
2024/03/24 07:03:47;;;;;;;6.43;3.00;;;5.10;99.90;;;;;;5041416;28;20033;-71
2024/03/24 07:06:13;;;;;;;7.57;3.28;;;5.40;99.90;;;;;;5042156;28;20025;-69
2024/03/24 07:08:41;;;;;;;5.57;3.05;;;5.80;99.90;;;;;;5024310;28;20037;-71
2024/03/24 07:11:07;;;;;;;3.20;2.47;;;6.20;99.90;;;;;;5041265;28;20029;-71
2024/03/24 07:13:33;;;;;;;4.22;2.60;;;6.20;99.90;;;;;;5023160;28;20025;-71
2024/03/24 07:15:59;;;;;;;5.47;2.95;;;6.20;99.90;;;;;;5039993;28;20095;-71
2024/03/24 07:18:24;;;;;;;8.23;2.90;;;6.20;99.90;;;;;;5039228;28;20435;-72
2024/03/24 07:21:03;;;;;;;6.35;3.67;;;6.20;99.90;;;;;;5041320;28;20029;-72
2024/03/24 07:23:29;;;;;;;8.15;4.32;;;6.20;99.90;;;;;;5041084;28;20055;-73
2024/03/24 07:25:55;;;;;;;2.90;2.03;;;6.30;99.90;;;;;;5040751;28;20559;-72
2024/03/24 07:28:21;;;;;;;10.30;3.67;;;6.60;99.90;;;;;;5041113;28;20033;-71
2024/03/24 07:30:47;;;;;;;4.82;3.10;;;6.90;99.90;;;;;;5041565;28;20043;-72
2024/03/24 07:33:13;;;;;;;6.85;2.92;;;6.90;99.90;;;;;;5041851;28;20021;-71
2024/03/24 07:35:41;;;;;;;10.05;4.10;;;7.30;99.90;;;;;;5040266;28;20037;-71
2024/03/24 07:38:07;;;;;;;2.95;2.25;;;7.50;99.90;;;;;;5041128;28;20550;-70
2024/03/24 07:40:33;;;;;;;2.13;1.92;;;7.50;99.90;;;;;;5022988;28;20066;-71
2024/03/24 07:42:59;;;;;;;4.75;2.28;;;7.80;99.90;;;;;;5041250;28;20412;-71
2024/03/24 07:45:25;;;;;;;3.35;2.30;;;8.10;99.90;;;;;;5040787;28;20028;-71
2024/03/24 07:47:51;;;;;;;15.07;6.30;;;8.30;99.90;;;;;;5040875;28;20652;-71
2024/03/24 07:50:18;;;;;;;7.25;3.42;;;8.20;99.90;;;;;;5041604;28;20036;-71
2024/03/24 07:52:44;;;;;;;4.13;2.47;;;8.70;99.90;;;;;;5041059;28;20032;-71
2024/03/24 07:55:09;;;;;;;7.80;3.70;;;8.80;99.90;;;;;;5040149;28;20029;-71
2024/03/24 07:57:37;;;;;;;5.43;1.60;;;9.30;99.90;;;;;;5023474;28;20043;-72
2024/03/24 08:00:04;;;;;;;8.02;3.80;;;9.10;99.90;;;;;;5041121;28;20024;-71
2024/03/24 08:02:38;;;;;;;3.10;1.67;;;8.90;99.90;;;;;;5040053;28;20681;-71
2024/03/24 08:05:05;;;;;;;3.35;1.63;;;9.20;99.90;;;;;;5040073;28;20041;-70
2024/03/24 08:07:31;;;;;;;3.00;1.50;;;9.20;99.90;;;;;;5040900;28;20049;-70
2024/03/24 08:09:57;;;;;;;3.28;2.13;;;9.20;99.90;;;;;;5039632;28;20119;-69
2024/03/24 08:12:22;;;;;;;5.28;2.40;;;9.20;99.90;;;;;;5022651;28;20115;-70
2024/03/24 08:14:48;;;;;;;2.33;1.65;;;9.10;99.90;;;;;;5031575;28;20064;-70
2024/03/24 08:17:14;;;;;;;7.38;3.47;;;8.70;99.90;;;;;;5019309;28;20379;-70
2024/03/24 08:19:40;;;;;;;11.98;5.57;;;8.60;99.90;;;;;;5022251;28;20024;-70
2024/03/24 08:22:06;;;;;;;4.05;2.30;;;8.90;99.90;;;;;;5039100;28;20024;-71
2024/03/24 08:24:31;;;;;;;8.70;1.92;;;9.20;99.90;;;;;;5039780;28;20029;-71
2024/03/24 08:26:57;;;;;;;15.00;5.72;;;9.20;99.90;;;;;;5037672;28;20033;-70
2024/03/24 08:29:23;;;;;;;10.73;4.82;;;9.10;99.90;;;;;;5022697;28;20191;-71
2024/03/24 08:31:49;;;;;;;12.45;5.07;;;9.20;99.90;;;;;;5040478;28;20021;-70
2024/03/24 08:34:14;;;;;;;10.00;4.32;;;9.20;99.90;;;;;;5039487;28;20025;-71
2024/03/24 08:36:40;;;;;;;82.75;29.90;;;9.10;99.90;;;;;;5040075;28;20060;-70
2024/03/24 08:39:06;;;;;;;12.05;5.18;;;8.80;99.90;;;;;;5039021;28;20033;-69
2024/03/24 08:41:32;;;;;;;13.48;4.43;;;8.60;99.90;;;;;;5040160;28;20052;-70
2024/03/24 08:43:58;;;;;;;48.22;17.25;;;8.30;99.90;;;;;;5022148;28;20116;-70
2024/03/24 08:46:25;;;;;;;5.80;2.20;;;8.20;99.90;;;;;;5038131;28;20041;-70
2024/03/24 08:48:53;;;;;;;5.65;1.85;;;8.00;99.90;;;;;;5018418;28;20048;-70
2024/03/24 08:51:19;;;;;;;3.60;2.28;;;7.70;99.90;;;;;;5039731;28;20032;-70
2024/03/24 08:53:45;;;;;;;2.00;1.80;;;7.50;99.90;;;;;;5037407;28;20025;-70
2024/03/24 08:56:11;;;;;;;3.65;1.77;;;7.20;99.90;;;;;;5037234;28;20036;-70
2024/03/24 08:58:37;;;;;;;4.57;1.95;;;7.20;99.90;;;;;;5039790;28;20036;-71
2024/03/24 09:01:03;;;;;;;2.60;2.13;;;7.20;99.90;;;;;;5040194;28;20036;-70
2024/03/24 09:03:29;;;;;;;8.02;2.47;;;7.30;99.90;;;;;;5040470;28;20028;-70
2024/03/24 09:05:55;;;;;;;2.38;1.73;;;7.50;99.90;;;;;;5039682;28;20041;-71
2024/03/24 09:08:20;;;;;;;1.70;1.30;;;7.70;99.90;;;;;;5039798;28;20017;-70
2024/03/24 09:10:46;;;;;;;2.63;1.77;;;7.70;99.90;;;;;;5038618;28;20108;-70
2024/03/24 09:13:12;;;;;;;4.45;1.90;;;7.60;99.90;;;;;;5038374;28;20136;-70
2024/03/24 09:15:38;;;;;;;3.53;1.92;;;7.60;99.90;;;;;;5039108;28;20039;-70
2024/03/24 09:18:04;;;;;;;4.82;2.22;;;7.60;99.90;;;;;;5040196;28;20148;-70
2024/03/24 09:20:30;;;;;;;3.65;1.98;;;7.40;99.90;;;;;;5040175;28;20492;-69
2024/03/24 09:22:55;;;;;;;5.68;2.25;;;7.40;99.90;;;;;;5038791;28;20035;-70
2024/03/24 09:25:21;;;;;;;6.65;2.33;;;7.50;99.90;;;;;;5038819;28;20462;-70
2024/03/24 09:27:50;;;;;;;4.07;2.10;;;7.50;99.90;;;;;;5040199;28;20044;-71
2024/03/24 09:30:16;;;;;;;13.90;8.55;;;7.30;99.90;;;;;;5039664;28;20037;-70
2024/03/24 09:32:42;;;;;;;25.65;15.63;;;7.00;99.90;;;;;;5040485;28;20029;-69
2024/03/24 09:35:09;;;;;;;22.77;15.20;;;6.80;99.90;;;;;;5039521;28;20409;-70
2024/03/24 09:37:35;;;;;;;9.75;5.95;;;6.70;99.90;;;;;;5038057;28;20040;-71
2024/03/24 09:40:01;;;;;;;4.00;2.63;;;6.70;99.90;;;;;;5043652;28;20043;-70
2024/03/24 09:42:28;;;;;;;3.72;2.92;;;6.60;99.90;;;;;;5041915;28;20041;-70
2024/03/24 09:44:56;;;;;;;9.32;5.40;;;6.30;99.90;;;;;;5043115;28;20179;-71
2024/03/24 09:47:25;;;;;;;6.00;3.75;;;6.20;99.90;;;;;;5042939;28;20032;-70
2024/03/24 09:49:54;;;;;;;5.93;2.90;;;6.30;99.90;;;;;;5043484;28;20029;-71
2024/03/24 09:52:22;;;;;;;5.45;2.97;;;6.20;99.90;;;;;;5043004;28;20032;-70
2024/03/24 09:54:48;;;;;;;4.63;3.08;;;6.10;99.90;;;;;;5043186;28;20071;-68
2024/03/24 09:57:15;;;;;;;5.05;2.75;;;6.10;99.90;;;;;;5043556;28;20017;-69
2024/03/24 09:59:45;;;;;;;6.45;2.65;;;6.30;99.90;;;;;;5042508;28;20078;-70
2024/03/24 10:02:12;;;;;;;4.70;2.80;;;6.50;99.90;;;;;;5025136;28;20048;-70
2024/03/24 10:04:38;;;;;;;4.63;2.55;;;6.70;99.90;;;;;;5043593;28;20778;-70
2024/03/24 10:07:04;;;;;;;4.53;2.67;;;6.70;99.90;;;;;;5024783;28;20143;-70
2024/03/24 10:09:30;;;;;;;5.80;2.78;;;6.70;99.90;;;;;;5043633;28;20040;-72
2024/03/24 10:11:56;;;;;;;4.13;2.65;;;6.70;99.90;;;;;;5025580;28;20035;-71
2024/03/24 10:14:25;;;;;;;6.03;2.60;;;6.70;99.90;;;;;;5042537;28;20554;-70
2024/03/24 10:16:51;;;;;;;3.97;2.67;;;6.70;99.90;;;;;;5022824;28;20504;-71
2024/03/24 10:19:17;;;;;;;4.45;2.90;;;6.60;99.90;;;;;;5042957;28;20032;-70
2024/03/24 10:21:43;;;;;;;9.98;2.70;;;6.50;99.90;;;;;;5024417;28;20036;-71
2024/03/24 10:24:09;;;;;;;4.88;2.83;;;6.50;99.90;;;;;;5042098;28;20093;-71
2024/03/24 10:26:39;;;;;;;6.30;3.50;;;6.50;99.90;;;;;;5024765;28;20154;-71
2024/03/24 10:29:05;;;;;;;6.85;2.97;;;6.50;99.90;;;;;;5042435;28;20025;-72
2024/03/24 10:31:35;;;;;;;5.32;2.90;;;6.70;99.90;;;;;;5042951;28;20108;-71
2024/03/24 10:34:04;;;;;;;3.92;2.97;;;6.80;99.90;;;;;;5042245;28;20198;-71
2024/03/24 10:36:33;;;;;;;6.97;3.25;;;7.10;99.90;;;;;;5041082;28;20041;-71
2024/03/24 10:39:06;;;;;;;4.90;2.88;;;7.20;99.90;;;;;;5042227;28;20071;-71
2024/03/24 10:41:32;;;;;;;4.60;2.72;;;7.30;99.90;;;;;;5024321;28;20434;-71
2024/03/24 10:44:02;;;;;;;4.70;3.08;;;7.30;99.90;;;;;;5040932;28;20041;-71
2024/03/24 10:46:31;;;;;;;4.70;2.92;;;7.40;99.90;;;;;;5025512;28;20586;-71
2024/03/24 10:48:59;;;;;;;4.45;2.35;;;7.30;99.90;;;;;;5040821;28;20198;-71
2024/03/24 10:51:29;;;;;;;7.93;2.83;;;7.40;99.90;;;;;;5042002;28;20029;-72
2024/03/24 10:54:02;;;;;;;4.25;2.47;;;7.30;99.90;;;;;;5040931;28;20040;-73
2024/03/24 10:56:30;;;;;;;4.32;2.58;;;7.10;99.90;;;;;;5041646;28;20515;-70
2024/03/24 10:59:00;;;;;;;6.25;3.03;;;7.00;99.90;;;;;;5041598;28;20033;-73
2024/03/24 11:01:26;;;;;;;8.40;3.28;;;7.00;99.90;;;;;;5041875;28;20033;-72
2024/03/24 11:03:53;;;;;;;6.38;3.65;;;7.10;99.90;;;;;;5041799;28;20095;-72
2024/03/24 11:08:53;;;;;;;6.13;3.10;;;6.90;99.90;;;;;;5037193;28;20059;-70
2024/03/24 11:11:19;;;;;;;7.43;3.72;;;6.80;99.90;;;;;;5039605;28;20029;-69
2024/03/24 11:13:46;;;;;;;10.23;3.90;;;6.80;99.90;;;;;;5020401;28;20056;-69
2024/03/24 11:16:11;;;;;;;8.55;3.25;;;7.00;99.90;;;;;;5041917;28;20400;-69
2024/03/24 11:18:37;;;;;;;6.07;3.33;;;7.20;99.90;;;;;;5042044;28;20046;-70
2024/03/24 11:21:34;;;;;;;4.57;2.88;;;7.10;99.90;;;;;;5060658;28;20043;-70
2024/03/24 11:24:01;;;;;;;4.82;3.40;;;6.80;99.90;;;;;;5062735;28;20048;-70
2024/03/24 11:26:31;;;;;;;4.88;3.42;;;6.60;99.90;;;;;;5066371;28;20551;-70
2024/03/24 11:28:57;;;;;;;3.95;2.72;;;6.60;99.90;;;;;;5066281;28;20046;-71
2024/03/24 11:31:23;;;;;;;5.05;2.60;;;6.50;99.90;;;;;;5061734;28;20965;-70
2024/03/24 11:34:12;;;;;;;3.22;2.72;;;6.60;99.90;;;;;;5061331;28;20027;-70
2024/03/24 11:36:43;;;;;;;3.53;2.40;;;6.60;99.90;;;;;;5061547;28;20035;-71
2024/03/24 11:39:11;;;;;;;4.25;2.47;;;6.70;99.90;;;;;;5058321;28;20056;-70
2024/03/24 11:41:50;;;;;;;3.53;2.70;;;6.70;99.90;;;;;;5062794;28;20032;-70
2024/03/24 11:44:17;;;;;;;5.30;2.67;;;6.80;99.90;;;;;;5062089;28;20119;-69
2024/03/24 11:46:43;;;;;;;8.00;3.30;;;6.90;99.90;;;;;;5061775;28;20035;-70
2024/03/24 11:49:11;;;;;;;5.60;2.67;;;7.20;99.90;;;;;;5041295;28;20048;-70
2024/03/24 11:51:37;;;;;;;5.68;3.30;;;7.50;99.90;;;;;;5062325;28;20384;-70
2024/03/24 11:54:04;;;;;;;4.07;2.22;;;7.50;99.90;;;;;;5062186;28;20437;-70
2024/03/24 11:56:32;;;;;;;4.95;2.55;;;7.70;99.90;;;;;;5061465;28;20819;-70
2024/03/24 11:58:58;;;;;;;3.88;2.53;;;7.70;99.90;;;;;;5062001;28;20028;-71
2024/03/24 12:01:24;;;;;;;3.25;2.25;;;7.60;99.90;;;;;;5043173;28;20050;-71
2024/03/24 12:03:51;;;;;;;9.32;3.85;;;7.60;99.90;;;;;;5041694;28;20028;-69
2024/03/24 12:06:19;;;;;;;3.45;2.28;;;7.60;99.90;;;;;;5061612;28;20111;-70
2024/03/24 12:08:47;;;;;;;6.13;3.30;;;7.70;99.90;;;;;;5061661;28;20035;-71
2024/03/24 12:11:16;;;;;;;3.88;2.80;;;7.80;99.90;;;;;;5062295;28;20024;-71
2024/03/24 12:13:43;;;;;;;7.10;3.80;;;8.00;99.90;;;;;;5059744;28;20875;-72
2024/03/24 12:16:13;;;;;;;5.05;3.10;;;8.00;99.90;;;;;;5061730;28;20033;-72
2024/03/24 12:18:39;;;;;;;9.10;4.13;;;7.90;99.90;;;;;;5061893;28;20028;-72
2024/03/24 12:21:08;;;;;;;4.53;2.83;;;8.10;99.90;;;;;;5061718;28;20078;-71
2024/03/24 12:23:35;;;;;;;8.02;2.60;;;8.30;99.90;;;;;;5062144;28;20593;-72
2024/03/24 12:26:01;;;;;;;3.28;2.00;;;8.30;99.90;;;;;;5060083;28;20044;-72
2024/03/24 12:28:27;;;;;;;6.63;3.17;;;8.30;99.90;;;;;;5062033;28;20028;-71
2024/03/24 12:30:56;;;;;;;5.13;2.35;;;8.20;99.90;;;;;;5061578;28;20020;-72
2024/03/24 12:33:23;;;;;;;3.00;2.22;;;8.30;99.90;;;;;;5061035;28;20024;-70
2024/03/24 12:35:50;;;;;;;3.55;2.28;;;8.40;99.90;;;;;;5042063;28;20051;-71
2024/03/24 12:38:17;;;;;;;3.75;2.00;;;8.30;99.90;;;;;;5061214;28;20044;-71
2024/03/24 12:40:51;;;;;;;2.60;2.08;;;8.20;99.90;;;;;;5061594;28;20031;-71
2024/03/24 12:43:17;;;;;;;2.47;2.28;;;8.10;99.90;;;;;;5061256;28;20028;-71
2024/03/24 12:46:02;;;;;;;4.90;1.90;;;8.10;99.90;;;;;;5060812;28;20082;-70
2024/03/24 12:48:29;;;;;;;1.67;1.52;;;8.00;99.90;;;;;;5061459;28;20063;-71
2024/03/24 12:50:58;;;;;;;2.80;1.83;;;8.20;99.90;;;;;;5061398;28;20028;-72
2024/03/24 12:53:30;;;;;;;4.15;1.77;;;8.20;99.90;;;;;;5048088;28;20033;-71
2024/03/24 12:55:59;;;;;;;2.40;2.10;;;8.00;99.90;;;;;;5061561;28;20035;-72